Terminal Aerodrome Forecast
Issued by NWS North Platte, NE

Home | Current Version | Previous Version | Text Only | Print | Product List | Glossary On
Versions: 1 2 3 4 5 6 7 8 9 10 11 12 13 14
000
FTUS43 KLBF 301100
TAFLBF
TAF
KLBF 301126Z 3012/0112 25006KT P6SM BKN200
     FM010100 35005KT P6SM VCTS OVC120CB
     FM010300 05005KT P6SM BKN120=

USA.gov is the U.S. government's official web portal to all federal, state and local government web resources and services.